Time;durP1;ratioP1;P1;durP2;ratioP2;P2;SDS_P1;SDS_P2;PMS_P1;PMS_P2;Temp;Humidity;BMP_temperature;BMP_pressure;BME280_temperature;BME280_humidity;BME280_pressure;Samples;Min_cycle;Max_cycle;Signal;HPM_P1;HPM_P2
2021/09/13 00:00:32;;;;;;;5.70;4.28;;;;;;;;;;5040954;28;20127;-49
2021/09/13 00:02:58;;;;;;;7.10;4.70;;;;;;;;;;5041007;28;20115;-50
2021/09/13 00:05:24;;;;;;;6.97;4.90;;;;;;;;;;5075939;28;20032;-48
2021/09/13 00:07:50;;;;;;;11.43;4.90;;;;;;;;;;5040975;28;20446;-49
2021/09/13 00:10:16;;;;;;;7.50;4.82;;;17.40;94.00;;;;;;5075721;28;20029;-49
2021/09/13 00:12:42;;;;;;;7.60;4.90;;;17.10;80.90;;;;;;5075674;28;20078;-49
2021/09/13 00:15:08;;;;;;;6.05;4.47;;;17.30;80.50;;;;;;5075863;28;20120;-50
2021/09/13 00:17:34;;;;;;;7.60;5.15;;;17.50;80.20;;;;;;5007620;28;20037;-48
2021/09/13 00:20:01;;;;;;;8.32;4.55;;;;;;;;;;5041056;28;20039;-49
2021/09/13 00:22:26;;;;;;;7.88;4.85;;;17.20;80.80;;;;;;5040713;28;20452;-46
2021/09/13 00:24:52;;;;;;;8.07;4.75;;;17.00;81.30;;;;;;5075577;28;20048;-50
2021/09/13 00:27:18;;;;;;;6.38;4.68;;;16.80;82.00;;;;;;4991195;28;20111;-49
2021/09/13 00:29:43;;;;;;;7.65;4.70;;;16.70;82.30;;;;;;5075495;28;20392;-48
2021/09/13 00:32:09;;;;;;;7.32;4.93;;;16.90;81.80;;;;;;5075579;28;20025;-50
2021/09/13 00:34:35;;;;;;;7.80;5.03;;;17.10;81.40;;;;;;5075469;28;20025;-48
2021/09/13 00:37:03;;;;;;;5.45;4.32;;;17.30;81.20;;;;;;5040849;28;20045;-49
2021/09/13 00:39:28;;;;;;;10.23;5.00;;;17.30;80.80;;;;;;5075264;28;20035;-50
2021/09/13 00:41:54;;;;;;;6.43;5.00;;;17.50;80.30;;;;;;4991029;28;20438;-49
2021/09/13 00:44:21;;;;;;;8.63;5.03;;;17.50;80.00;;;;;;5075453;28;20028;-46
2021/09/13 00:46:46;;;;;;;9.05;5.82;;;17.50;80.80;;;;;;5075059;28;20162;-49
2021/09/13 00:49:12;;;;;;;6.65;5.95;;;17.40;81.40;;;;;;5074079;28;20048;-49
2021/09/13 00:51:39;;;;;;;8.25;5.63;;;17.50;81.30;;;;;;5075076;28;20107;-50
2021/09/13 00:54:06;;;;;;;9.02;6.20;;;17.40;81.40;;;;;;5075067;28;20107;-47
2021/09/13 00:56:32;;;;;;;10.13;6.13;;;17.10;82.60;;;;;;5075090;28;20043;-49
2021/09/13 00:58:58;;;;;;;8.20;6.07;;;16.90;83.40;;;;;;5075197;28;20545;-49
2021/09/13 01:01:23;;;;;;;10.77;5.80;;;16.90;83.40;;;;;;5074668;28;20024;-47
2021/09/13 01:03:49;;;;;;;11.18;5.80;;;17.00;83.50;;;;;;5075310;28;20078;-48
2021/09/13 01:06:16;;;;;;;8.77;5.60;;;17.00;83.30;;;;;;5039751;28;20033;-50
2021/09/13 01:08:43;;;;;;;10.10;5.93;;;16.80;83.30;;;;;;5039737;28;20403;-50
2021/09/13 01:11:10;;;;;;;8.63;5.45;;;16.90;83.70;;;;;;5074510;28;20030;-49
2021/09/13 01:13:36;;;;;;;11.00;5.57;;;17.00;84.40;;;;;;5074589;28;20116;-49
2021/09/13 01:16:06;;;;;;;6.88;5.72;;;17.00;83.90;;;;;;5039633;28;20135;-47
2021/09/13 01:18:32;;;;;;;7.78;5.28;;;17.00;83.50;;;;;;5074524;28;20082;-49
2021/09/13 01:20:59;;;;;;;9.98;5.88;;;17.20;82.90;;;;;;5012420;28;20402;-47
2021/09/13 01:23:30;;;;;;;9.32;5.90;;;17.30;82.40;;;;;;5012714;28;20084;-48
2021/09/13 01:25:57;;;;;;;9.30;5.80;;;17.40;82.10;;;;;;5012667;28;20101;-48
2021/09/13 01:28:23;;;;;;;10.18;5.90;;;17.50;82.10;;;;;;5012684;28;20481;-49
2021/09/13 01:30:49;;;;;;;8.13;6.40;;;17.40;82.60;;;;;;4980179;28;20045;-47
2021/09/13 01:33:15;;;;;;;9.98;6.75;;;17.40;82.20;;;;;;5012690;28;20026;-47
2021/09/13 01:35:41;;;;;;;12.07;6.30;;;17.40;82.10;;;;;;4996122;28;20176;-48
2021/09/13 01:38:06;;;;;;;7.43;6.25;;;17.40;82.00;;;;;;5012594;28;20062;-49
2021/09/13 01:40:35;;;;;;;9.48;6.95;;;17.40;82.00;;;;;;5012503;28;20485;-49
2021/09/13 01:43:02;;;;;;;7.40;5.70;;;17.40;81.90;;;;;;5012453;28;20065;-50
2021/09/13 01:45:29;;;;;;;8.55;6.03;;;17.40;81.80;;;;;;5012218;28;20450;-49
2021/09/13 01:47:56;;;;;;;12.20;7.35;;;17.40;81.80;;;;;;5012103;28;20029;-48
2021/09/13 01:50:22;;;;;;;12.05;6.32;;;17.40;81.90;;;;;;5012236;28;20077;-48
2021/09/13 01:52:50;;;;;;;12.82;5.88;;;17.40;82.00;;;;;;5064804;28;20111;-48
2021/09/13 01:55:16;;;;;;;9.15;6.15;;;17.30;81.80;;;;;;5073830;28;20060;-46
2021/09/13 01:57:42;;;;;;;9.57;5.63;;;17.30;81.80;;;;;;5073581;28;20536;-50
2021/09/13 02:00:11;;;;;;;8.23;6.38;;;17.30;81.80;;;;;;5073609;28;20028;-49
2021/09/13 02:02:37;;;;;;;8.95;6.72;;;17.30;81.90;;;;;;5073790;28;20488;-47
2021/09/13 02:05:03;;;;;;;10.23;6.70;;;17.20;81.70;;;;;;5073617;28;20025;-47
2021/09/13 02:07:29;;;;;;;11.73;6.22;;;17.20;81.80;;;;;;4989595;28;20094;-48
2021/09/13 02:09:54;;;;;;;8.43;6.28;;;17.20;81.90;;;;;;5055247;28;20051;-49
2021/09/13 02:12:20;;;;;;;9.15;6.03;;;17.10;82.00;;;;;;5073695;28;20418;-48
2021/09/13 02:14:47;;;;;;;11.23;7.25;;;17.10;82.20;;;;;;5073487;28;20029;-47
2021/09/13 02:17:13;;;;;;;11.27;7.13;;;17.00;82.70;;;;;;5022056;28;20051;-46
2021/09/13 02:19:39;;;;;;;9.20;6.95;;;16.90;83.10;;;;;;5005442;28;20072;-47
2021/09/13 02:22:05;;;;;;;10.00;6.97;;;16.80;83.30;;;;;;5073613;28;20075;-48
2021/09/13 02:24:30;;;;;;;11.02;7.03;;;16.80;83.80;;;;;;5073343;28;20365;-49
2021/09/13 02:26:56;;;;;;;9.05;7.25;;;16.80;84.20;;;;;;5073659;28;20085;-47
2021/09/13 02:29:22;;;;;;;10.60;7.50;;;16.60;84.60;;;;;;5073506;28;20024;-47
2021/09/13 02:31:48;;;;;;;13.35;7.25;;;16.50;84.60;;;;;;5073330;28;20142;-46
2021/09/13 02:34:14;;;;;;;9.35;6.68;;;16.50;84.40;;;;;;5073116;28;20025;-48
2021/09/13 02:36:40;;;;;;;13.50;7.25;;;16.50;84.80;;;;;;5073759;28;20467;-49
2021/09/13 02:39:09;;;;;;;10.68;6.93;;;16.50;85.40;;;;;;5073127;28;20025;-48
2021/09/13 02:41:36;;;;;;;11.43;6.90;;;16.50;85.70;;;;;;5073289;28;20111;-46
2021/09/13 02:44:02;;;;;;;11.88;7.70;;;16.50;85.90;;;;;;5073251;28;20020;-49
2021/09/13 02:46:28;;;;;;;9.05;7.40;;;16.50;86.40;;;;;;5073452;28;20025;-50
2021/09/13 02:48:54;;;;;;;9.57;7.13;;;16.50;86.60;;;;;;5073234;28;20031;-50
2021/09/13 02:51:23;;;;;;;12.10;7.80;;;16.40;86.90;;;;;;5073430;28;20464;-47
2021/09/13 02:53:49;;;;;;;10.10;6.95;;;16.40;87.40;;;;;;5039118;28;20033;-47
2021/09/13 02:56:14;;;;;;;15.52;7.88;;;16.50;87.60;;;;;;5037867;28;20045;-48
2021/09/13 02:58:40;;;;;;;10.57;8.25;;;16.50;87.70;;;;;;5038172;28;20040;-47
2021/09/13 03:01:06;;;;;;;10.00;7.97;;;16.50;87.60;;;;;;5072904;28;20515;-47
2021/09/13 03:03:32;;;;;;;13.13;7.60;;;16.50;87.70;;;;;;5073313;28;20074;-49
2021/09/13 03:05:57;;;;;;;10.23;7.53;;;16.50;87.80;;;;;;5072923;28;20033;-50
2021/09/13 03:08:23;;;;;;;14.43;7.47;;;16.50;88.00;;;;;;5073581;28;20048;-50
2021/09/13 03:10:49;;;;;;;13.32;8.35;;;16.50;88.00;;;;;;5073245;28;20020;-50
2021/09/13 03:13:15;;;;;;;13.77;8.40;;;16.60;88.00;;;;;;5042107;28;20041;-50
2021/09/13 03:15:41;;;;;;;12.70;7.47;;;16.60;88.20;;;;;;5076653;28;20127;-47
2021/09/13 03:18:07;;;;;;;10.18;7.35;;;16.50;88.10;;;;;;5041648;28;20123;-50
2021/09/13 03:20:33;;;;;;;14.45;8.05;;;16.50;88.00;;;;;;5077102;28;20103;-50
2021/09/13 03:22:59;;;;;;;15.00;8.02;;;16.40;88.10;;;;;;5076458;28;20048;-48
2021/09/13 03:25:26;;;;;;;13.45;7.50;;;16.40;88.30;;;;;;5077336;28;20053;-49
2021/09/13 03:27:52;;;;;;;12.20;8.02;;;16.30;88.50;;;;;;5077089;28;20032;-48
2021/09/13 03:30:18;;;;;;;11.75;7.32;;;16.40;88.50;;;;;;5076554;28;20447;-51
2021/09/13 03:32:44;;;;;;;9.73;6.93;;;16.30;88.50;;;;;;5076980;28;20033;-49
2021/09/13 03:35:10;;;;;;;10.45;7.10;;;16.30;88.40;;;;;;5076518;28;20031;-47
2021/09/13 03:37:36;;;;;;;12.32;7.55;;;16.30;88.50;;;;;;5076415;28;20031;-49
2021/09/13 03:40:03;;;;;;;13.50;7.55;;;16.30;88.50;;;;;;5076237;28;20032;-47
2021/09/13 03:42:29;;;;;;;12.68;6.90;;;16.30;88.20;;;;;;5041581;28;20388;-46
2021/09/13 03:44:55;;;;;;;16.25;10.20;;;16.40;88.00;;;;;;5058103;28;20028;-47
2021/09/13 03:47:20;;;;;;;12.82;9.18;;;16.50;87.60;;;;;;5076377;28;20100;-48
2021/09/13 03:49:46;;;;;;;12.85;7.28;;;16.60;87.30;;;;;;5041289;28;20146;-48
2021/09/13 03:52:12;;;;;;;10.27;7.03;;;16.60;86.90;;;;;;5076670;28;20021;-49
2021/09/13 03:54:38;;;;;;;11.48;7.00;;;16.60;86.50;;;;;;5041362;28;20058;-47
2021/09/13 03:57:05;;;;;;;8.18;7.22;;;16.60;86.50;;;;;;5076048;28;20102;-50
2021/09/13 03:59:31;;;;;;;12.15;7.53;;;16.50;86.70;;;;;;5076152;28;20027;-46
2021/09/13 04:01:58;;;;;;;17.27;7.75;;;16.30;87.10;;;;;;5075895;28;20016;-50
2021/09/13 04:04:27;;;;;;;12.77;7.47;;;16.00;88.60;;;;;;5075847;28;20353;-47
2021/09/13 04:06:59;;;;;;;18.05;8.23;;;16.00;88.90;;;;;;5075858;28;20039;-49
2021/09/13 04:11:58;;;;;;;14.23;8.55;;;16.20;88.30;;;;;;5075851;28;20128;-50
2021/09/13 04:14:29;;;;;;;13.20;7.95;;;16.30;88.00;;;;;;5075579;28;20115;-46
2021/09/13 04:16:55;;;;;;;12.85;7.13;;;16.30;87.90;;;;;;5075794;28;20044;-47
2021/09/13 04:19:22;;;;;;;10.30;7.55;;;16.40;87.80;;;;;;5075781;28;20039;-47
2021/09/13 04:21:50;;;;;;;11.45;7.32;;;16.40;87.70;;;;;;5075618;28;20053;-46
2021/09/13 04:24:16;;;;;;;17.85;7.97;;;16.50;87.50;;;;;;5075776;28;20102;-50
2021/09/13 04:26:42;;;;;;;10.48;7.28;;;16.40;87.70;;;;;;5075684;28;20066;-47
2021/09/13 04:29:09;;;;;;;16.77;8.38;;;16.40;87.70;;;;;;5024134;28;20112;-46
2021/09/13 04:31:35;;;;;;;12.93;9.07;;;16.40;87.50;;;;;;5075697;28;20033;-47
2021/09/13 04:34:01;;;;;;;18.13;6.93;;;16.40;87.50;;;;;;5075472;28;20025;-48
2021/09/13 04:36:27;;;;;;;12.13;7.18;;;16.40;87.30;;;;;;5075404;28;20417;-47
2021/09/13 04:38:53;;;;;;;12.40;7.70;;;16.40;87.40;;;;;;5075394;28;20119;-50
2021/09/13 04:41:19;;;;;;;9.63;7.32;;;16.40;87.30;;;;;;5023506;28;20034;-47
2021/09/13 04:43:45;;;;;;;12.38;6.72;;;16.40;87.30;;;;;;5075241;28;20024;-48
2021/09/13 04:46:11;;;;;;;14.25;7.00;;;16.30;87.40;;;;;;5040248;28;20440;-50
2021/09/13 04:48:37;;;;;;;12.13;7.35;;;16.30;87.50;;;;;;5075166;28;20047;-47
2021/09/13 04:51:02;;;;;;;10.70;6.97;;;16.40;87.50;;;;;;5075161;28;20056;-50
2021/09/13 04:53:28;;;;;;;9.52;6.45;;;16.30;87.40;;;;;;4980440;28;20061;-47
2021/09/13 04:55:54;;;;;;;10.43;7.05;;;16.30;87.40;;;;;;5013400;28;20533;-47
2021/09/13 04:58:19;;;;;;;9.10;7.03;;;16.40;87.40;;;;;;5013515;28;20542;-47
2021/09/13 05:00:45;;;;;;;13.65;7.25;;;16.50;87.20;;;;;;5013260;28;20114;-46
2021/09/13 05:03:11;;;;;;;12.10;6.45;;;16.50;87.00;;;;;;5013049;28;20049;-47
2021/09/13 05:05:37;;;;;;;11.95;6.90;;;16.60;87.20;;;;;;5013087;28;20030;-46
2021/09/13 05:08:03;;;;;;;13.80;8.15;;;16.60;87.20;;;;;;5012113;28;20038;-48
2021/09/13 05:10:29;;;;;;;9.23;6.18;;;16.70;87.10;;;;;;4980230;28;20450;-49
2021/09/13 05:12:54;;;;;;;10.73;6.70;;;16.80;86.90;;;;;;4982806;28;20037;-49
2021/09/13 05:15:20;;;;;;;12.05;7.00;;;16.90;86.70;;;;;;4979874;28;20046;-49
2021/09/13 05:17:46;;;;;;;9.20;6.30;;;17.00;86.80;;;;;;4964457;28;20125;-47
2021/09/13 05:20:13;;;;;;;9.95;6.80;;;17.10;86.60;;;;;;5012875;28;20117;-50
2021/09/13 05:22:39;;;;;;;12.65;6.78;;;17.10;86.60;;;;;;5012432;28;20133;-47
2021/09/13 05:25:05;;;;;;;13.40;7.40;;;17.20;86.50;;;;;;5012418;28;20132;-46
2021/09/13 05:27:31;;;;;;;9.30;6.28;;;17.10;87.00;;;;;;5012639;28;20099;-48
2021/09/13 05:29:57;;;;;;;9.77;6.35;;;17.20;87.10;;;;;;5017045;28;20109;-49
2021/09/13 05:32:23;;;;;;;10.85;6.50;;;17.30;87.00;;;;;;5020794;28;20032;-50
2021/09/13 05:34:49;;;;;;;12.07;7.10;;;17.40;86.90;;;;;;5069878;28;20093;-49
2021/09/13 05:37:15;;;;;;;13.55;7.18;;;17.40;87.00;;;;;;5048942;28;20074;-48
2021/09/13 05:39:41;;;;;;;11.73;6.45;;;17.40;87.50;;;;;;5083896;28;20063;-50
2021/09/13 05:42:07;;;;;;;20.33;8.45;;;17.50;87.20;;;;;;5081318;28;20028;-49
2021/09/13 05:44:33;;;;;;;19.45;8.25;;;17.50;87.20;;;;;;5080172;28;20356;-46
2021/09/13 05:46:58;;;;;;;19.10;8.75;;;17.60;87.30;;;;;;5018274;28;20395;-47
2021/09/13 05:49:24;;;;;;;20.02;9.10;;;17.50;87.90;;;;;;5080113;28;20028;-46
2021/09/13 05:51:51;;;;;;;27.90;8.48;;;17.60;87.50;;;;;;5032661;28;20039;-47
2021/09/13 05:54:22;;;;;;;21.73;7.82;;;17.70;87.30;;;;;;4975041;28;20125;-47
2021/09/13 05:56:53;;;;;;;19.67;8.20;;;17.80;87.60;;;;;;5036915;28;20044;-49
2021/09/13 05:59:20;;;;;;;24.48;7.75;;;17.90;87.40;;;;;;5038790;28;20429;-50
2021/09/13 06:01:46;;;;;;;14.93;8.20;;;18.00;87.30;;;;;;5040569;28;20017;-46
2021/09/13 06:04:12;;;;;;;22.73;9.25;;;18.20;87.20;;;;;;5040607;28;20025;-50
2021/09/13 06:06:39;;;;;;;13.85;7.20;;;18.40;87.40;;;;;;5031706;28;20100;-46
2021/09/13 06:09:05;;;;;;;12.25;7.38;;;18.60;86.60;;;;;;5031334;28;20115;-49
2021/09/13 06:11:30;;;;;;;14.02;6.97;;;18.80;86.10;;;;;;5031166;28;20120;-48
2021/09/13 06:13:56;;;;;;;21.88;9.13;;;19.00;85.60;;;;;;4998770;28;20469;-50
2021/09/13 06:16:22;;;;;;;13.15;7.45;;;19.10;85.10;;;;;;5031966;28;20053;-50
2021/09/13 06:18:48;;;;;;;14.43;6.53;;;19.30;84.30;;;;;;5031556;28;20033;-50
2021/09/13 06:21:14;;;;;;;12.60;5.82;;;19.30;84.30;;;;;;5014885;28;20453;-50
2021/09/13 06:23:40;;;;;;;12.85;6.93;;;19.40;84.10;;;;;;5031493;28;20160;-49
2021/09/13 06:26:06;;;;;;;9.68;6.30;;;19.60;84.90;;;;;;4959442;28;20522;-52
2021/09/13 06:28:32;;;;;;;9.70;5.80;;;19.80;83.80;;;;;;4991889;28;20049;-48
2021/09/13 06:30:58;;;;;;;11.73;6.45;;;20.10;83.50;;;;;;4998592;28;20053;-47
2021/09/13 06:33:23;;;;;;;8.10;5.30;;;20.40;83.20;;;;;;5011746;28;20076;-50
2021/09/13 06:35:49;;;;;;;15.10;6.18;;;20.60;82.30;;;;;;5011523;28;20041;-49
2021/09/13 06:38:15;;;;;;;12.73;6.15;;;21.00;81.00;;;;;;5012299;28;20038;-49
2021/09/13 06:40:41;;;;;;;14.50;5.50;;;21.30;80.30;;;;;;5011591;28;20030;-49
2021/09/13 06:43:09;;;;;;;9.88;5.35;;;21.60;79.50;;;;;;5011804;28;20037;-51
2021/09/13 06:45:42;;;;;;;10.73;6.22;;;21.60;78.90;;;;;;5011610;28;20034;-49
2021/09/13 06:48:11;;;;;;;14.88;7.07;;;21.90;79.00;;;;;;4970484;28;20084;-50
2021/09/13 06:50:39;;;;;;;12.82;6.53;;;22.20;78.60;;;;;;5015726;28;20037;-46
2021/09/13 06:53:05;;;;;;;12.57;6.57;;;22.20;77.60;;;;;;5015584;28;20038;-49
2021/09/13 06:55:32;;;;;;;12.48;6.20;;;22.20;77.20;;;;;;5015449;28;20040;-47
2021/09/13 06:57:58;;;;;;;15.68;6.95;;;22.20;76.70;;;;;;5015523;28;20041;-48
2021/09/13 07:00:24;;;;;;;17.23;6.95;;;22.30;77.20;;;;;;5012854;28;20030;-50
2021/09/13 07:02:50;;;;;;;14.38;6.50;;;22.40;77.30;;;;;;4991828;28;20037;-49
2021/09/13 07:05:16;;;;;;;10.10;5.85;;;22.40;75.60;;;;;;5057276;28;20528;-49
2021/09/13 07:07:43;;;;;;;14.48;7.72;;;22.40;75.50;;;;;;5057280;28;20188;-49
2021/09/13 07:10:11;;;;;;;12.70;5.88;;;22.60;75.40;;;;;;5022199;28;20091;-50
2021/09/13 07:12:37;;;;;;;18.98;6.22;;;22.70;75.90;;;;;;5022387;28;20087;-51
2021/09/13 07:15:04;;;;;;;14.05;5.85;;;22.80;74.60;;;;;;5071866;28;20036;-50
2021/09/13 07:17:30;;;;;;;14.75;5.65;;;23.00;73.60;;;;;;4956702;28;20041;-49
2021/09/13 07:19:55;;;;;;;15.60;5.75;;;23.10;74.00;;;;;;5035963;28;20097;-48
2021/09/13 07:22:21;;;;;;;15.27;5.47;;;23.20;72.30;;;;;;5086639;28;20132;-49
2021/09/13 07:24:47;;;;;;;12.98;5.10;;;23.30;72.30;;;;;;5052514;28;20020;-48
2021/09/13 07:27:14;;;;;;;10.63;5.22;;;23.60;72.30;;;;;;5070645;28;20062;-48
2021/09/13 07:29:40;;;;;;;6.75;4.10;;;23.70;72.20;;;;;;5066337;28;20025;-50
2021/09/13 07:32:07;;;;;;;11.18;3.83;;;23.70;70.00;;;;;;5065719;28;20427;-48
2021/09/13 07:34:36;;;;;;;6.72;3.67;;;23.60;69.60;;;;;;5065370;28;20043;-50
2021/09/13 07:37:02;;;;;;;7.95;3.78;;;23.90;69.70;;;;;;5021032;28;20036;-50
2021/09/13 07:39:29;;;;;;;10.63;3.85;;;24.10;69.20;;;;;;5070472;28;20029;-50
2021/09/13 07:41:56;;;;;;;7.35;3.97;;;24.20;68.90;;;;;;5069469;28;20517;-52
2021/09/13 07:44:22;;;;;;;8.80;4.43;;;24.40;68.20;;;;;;5069052;28;20037;-49
2021/09/13 07:46:48;;;;;;;5.15;3.92;;;24.70;68.00;;;;;;5066516;28;20036;-47
2021/09/13 07:49:14;;;;;;;11.35;4.35;;;24.80;67.60;;;;;;5066654;28;20032;-50
2021/09/13 07:51:40;;;;;;;6.18;3.90;;;24.90;67.20;;;;;;5071219;28;20032;-51
2021/09/13 07:54:06;;;;;;;8.68;3.78;;;25.20;66.30;;;;;;5066507;28;20024;-50
2021/09/13 07:56:34;;;;;;;10.40;4.38;;;25.20;66.40;;;;;;5060159;28;20083;-47
2021/09/13 07:59:03;;;;;;;8.75;3.92;;;25.50;66.40;;;;;;5063340;28;20087;-50
2021/09/13 08:01:29;;;;;;;8.05;3.78;;;;;;;;;;5008991;28;20032;-46
2021/09/13 08:03:55;;;;;;;11.63;4.03;;;25.60;65.50;;;;;;5067407;28;20029;-47
2021/09/13 08:06:21;;;;;;;8.65;4.05;;;25.80;65.90;;;;;;5032993;28;20028;-47
2021/09/13 08:08:47;;;;;;;12.18;4.28;;;26.40;65.00;;;;;;5069087;28;20453;-49
2021/09/13 08:11:13;;;;;;;9.85;4.57;;;26.40;64.60;;;;;;5065239;28;20028;-50
2021/09/13 08:13:39;;;;;;;8.90;3.95;;;;;;;;;;5024366;28;20067;-48
2021/09/13 08:16:06;;;;;;;9.98;3.30;;;;;;;;;;5047610;28;20491;-49
2021/09/13 08:18:32;;;;;;;9.02;3.60;;;;;;;;;;5069893;28;20025;-50
2021/09/13 08:20:58;;;;;;;10.05;4.40;;;;;;;;;;5064420;28;20040;-48
2021/09/13 08:23:24;;;;;;;9.45;3.80;;;27.20;93.90;;;;;;5067543;28;20094;-50
2021/09/13 08:25:50;;;;;;;4.72;3.60;;;27.10;63.30;;;;;;5066567;28;20031;-47
2021/09/13 08:28:23;;;;;;;9.98;4.05;;;27.50;62.40;;;;;;5065620;28;20029;-48
2021/09/13 08:30:49;;;;;;;25.38;6.05;;;27.90;62.60;;;;;;5027751;28;20112;-49
2021/09/13 08:33:16;;;;;;;9.27;3.50;;;28.10;62.20;;;;;;5042747;28;20056;-48
2021/09/13 08:35:42;;;;;;;7.82;4.00;;;;;;;;;;5065958;28;20040;-48
2021/09/13 08:38:08;;;;;;;5.90;3.67;;;28.10;60.30;;;;;;5067588;28;20020;-49
2021/09/13 08:40:34;;;;;;;10.00;3.85;;;;;;;;;;5027595;28;20115;-49
2021/09/13 08:43:01;;;;;;;10.68;4.40;;;;;;;;;;5063261;28;20036;-50
2021/09/13 08:48:27;;;;;;;5.22;3.80;;;28.60;92.20;;;;;;5066764;28;20089;-53
2021/09/13 08:53:40;;;;;;;8.98;5.40;;;28.90;58.20;;;;;;5069871;28;20028;-52
2021/09/13 08:56:13;;;;;;;8.02;3.92;;;;;;;;;;5067378;28;20484;-51
2021/09/13 08:58:41;;;;;;;9.48;4.72;;;29.60;92.80;;;;;;5064307;28;20044;-51
2021/09/13 09:01:07;;;;;;;10.07;4.05;;;30.30;70.20;;;;;;5059500;28;20385;-50
2021/09/13 09:03:37;;;;;;;6.35;3.95;;;;;;;;;;5065896;28;20456;-48
2021/09/13 09:06:03;;;;;;;9.13;4.07;;;;;;;;;;5029792;28;20087;-51
2021/09/13 09:08:36;;;;;;;6.88;3.88;;;;;;;;;;5068702;28;20036;-53
2021/09/13 09:11:06;;;;;;;7.88;3.88;;;;;;;;;;5070765;28;20408;-51
2021/09/13 09:13:37;;;;;;;11.82;3.78;;;;;;;;;;5065575;28;20372;-51
2021/09/13 09:16:04;;;;;;;7.07;3.72;;;;;;;;;;5059927;28;20041;-48
2021/09/13 09:18:56;;;;;;;10.93;4.30;;;;;;;;;;5061506;28;20032;-48
2021/09/13 09:21:29;;;;;;;9.55;3.67;;;;;;;;;;5059462;28;20036;-49
2021/09/13 09:23:57;;;;;;;7.53;3.70;;;;;;;;;;5045283;28;20041;-53
2021/09/13 09:26:24;;;;;;;8.95;3.60;;;32.20;55.00;;;;;;5064793;28;20033;-49
2021/09/13 09:28:50;;;;;;;6.45;4.45;;;32.60;61.00;;;;;;5064015;28;20073;-48
2021/09/13 09:31:43;;;;;;;9.07;4.47;;;32.50;59.30;;;;;;5062168;28;20107;-52
2021/09/13 09:34:19;;;;;;;7.40;4.68;;;;;;;;;;5012095;28;20071;-51
2021/09/13 09:37:00;;;;;;;6.80;3.85;;;32.60;80.20;;;;;;5059733;28;20044;-49
2021/09/13 09:39:30;;;;;;;8.32;4.15;;;32.80;78.90;;;;;;5059106;28;20094;-49
2021/09/13 09:41:56;;;;;;;10.63;3.70;;;33.10;67.90;;;;;;5067069;28;20111;-50
2021/09/13 09:44:23;;;;;;;7.65;4.03;;;;;;;;;;5063402;28;20094;-51
2021/09/13 09:46:50;;;;;;;6.82;3.53;;;33.30;79.10;;;;;;5065697;28;20083;-52
2021/09/13 09:49:20;;;;;;;7.13;3.38;;;33.50;78.00;;;;;;4998528;28;20046;-48
2021/09/13 09:51:49;;;;;;;7.35;3.97;;;;;;;;;;4995727;28;20489;-51
2021/09/13 09:54:21;;;;;;;10.65;4.18;;;33.00;82.70;;;;;;4995920;28;20034;-51
2021/09/13 09:57:05;;;;;;;5.10;3.08;;;33.00;76.10;;;;;;4960315;28;20054;-47
2021/09/13 09:59:34;;;;;;;11.32;3.90;;;32.60;55.30;;;;;;5000856;28;20042;-49
2021/09/13 10:02:10;;;;;;;5.25;2.97;;;32.30;53.30;;;;;;5007290;28;20121;-49
2021/09/13 10:04:35;;;;;;;8.60;3.10;;;32.10;52.00;;;;;;5001379;28;20038;-49
2021/09/13 10:07:01;;;;;;;6.72;3.38;;;33.00;68.50;;;;;;5001648;28;20092;-49
2021/09/13 10:09:29;;;;;;;4.57;3.08;;;;;;;;;;4998097;28;20646;-49
2021/09/13 10:11:58;;;;;;;5.65;2.53;;;33.10;50.10;;;;;;4994656;28;20034;-50
2021/09/13 10:14:26;;;;;;;9.13;3.75;;;;;;;;;;4997256;28;20042;-51
2021/09/13 10:16:52;;;;;;;4.55;3.63;;;;;;;;;;4999594;28;20053;-53
2021/09/13 10:19:19;;;;;;;7.80;3.40;;;;;;;;;;5005057;28;20030;-49
2021/09/13 10:21:45;;;;;;;7.63;3.80;;;33.50;87.70;;;;;;5061943;28;20036;-48
2021/09/13 10:24:13;;;;;;;5.88;3.30;;;;;;;;;;5014635;28;20083;-52
2021/09/13 10:26:44;;;;;;;7.47;3.17;;;33.60;89.70;;;;;;5060706;28;20462;-48
2021/09/13 10:29:12;;;;;;;8.10;3.53;;;34.00;52.40;;;;;;5057626;28;20406;-48
2021/09/13 10:31:41;;;;;;;4.63;3.22;;;33.80;50.30;;;;;;5062630;28;20036;-50
2021/09/13 10:34:18;;;;;;;6.40;3.10;;;34.00;49.60;;;;;;5061840;28;20039;-48
2021/09/13 10:37:07;;;;;;;4.40;2.80;;;33.60;48.60;;;;;;5059221;28;20479;-52
2021/09/13 10:39:54;;;;;;;4.50;3.13;;;34.00;50.10;;;;;;5014512;28;20118;-49
2021/09/13 10:42:40;;;;;;;11.55;3.28;;;34.30;49.10;;;;;;5064174;28;20040;-50
2021/09/13 10:45:18;;;;;;;7.22;3.42;;;34.80;50.50;;;;;;5066834;28;20028;-48
2021/09/13 10:47:48;;;;;;;5.15;3.40;;;34.90;49.40;;;;;;5064627;28;20369;-51
2021/09/13 10:50:18;;;;;;;10.30;3.40;;;34.30;49.10;;;;;;5065850;28;20076;-52
2021/09/13 10:52:45;;;;;;;10.65;3.15;;;34.20;47.80;;;;;;5061883;28;20457;-49
2021/09/13 10:55:16;;;;;;;7.50;3.58;;;35.00;49.10;;;;;;5064531;28;20131;-50
2021/09/13 10:57:55;;;;;;;6.32;3.42;;;35.40;50.30;;;;;;5067729;28;20049;-51
2021/09/13 11:00:40;;;;;;;9.15;3.90;;;;;;;;;;5059782;28;20472;-50
2021/09/13 11:06:08;;;;;;;9.18;3.88;;;34.40;63.00;;;;;;5061401;28;20132;-51
2021/09/13 11:08:38;;;;;;;7.68;3.42;;;;;;;;;;5062560;28;20027;-52
2021/09/13 11:11:14;;;;;;;5.65;3.22;;;34.20;47.60;;;;;;5067288;28;20037;-49
2021/09/13 11:13:42;;;;;;;10.85;3.53;;;34.40;49.40;;;;;;5060599;28;20065;-51
2021/09/13 11:16:08;;;;;;;7.20;3.05;;;;;;;;;;5060418;28;20052;-51
2021/09/13 11:18:41;;;;;;;5.60;2.95;;;34.70;85.60;;;;;;5059840;28;20033;-51
2021/09/13 11:21:46;;;;;;;6.28;3.10;;;34.90;47.40;;;;;;5055971;28;20072;-50
2021/09/13 11:24:16;;;;;;;4.40;3.00;;;;;;;;;;4982647;28;20054;-51
2021/09/13 11:26:47;;;;;;;12.40;4.15;;;;;;;;;;4979810;28;20066;-50
2021/09/13 11:29:25;;;;;;;11.82;3.38;;;35.10;72.90;;;;;;4985705;28;20043;-49
2021/09/13 11:31:56;;;;;;;6.80;3.40;;;34.60;61.00;;;;;;4980911;28;20039;-49
2021/09/13 11:34:24;;;;;;;;;;;35.20;62.00;;;;;;4986913;28;20136;-51
2021/09/13 11:36:51;;;;;;;9.55;3.13;;;;;;;;;;4985892;28;19950;-52
2021/09/13 11:39:19;;;;;;;8.80;3.38;;;35.50;48.30;;;;;;4989157;28;20045;-49
2021/09/13 11:42:03;;;;;;;8.27;3.22;;;35.70;57.70;;;;;;4991314;28;20593;-49
2021/09/13 11:44:35;;;;;;;8.10;2.92;;;35.60;56.20;;;;;;4991248;28;20030;-49
2021/09/13 11:47:06;;;;;;;8.00;3.38;;;34.80;46.80;;;;;;4990360;28;20046;-52
2021/09/13 11:49:37;;;;;;;7.93;2.90;;;34.80;47.40;;;;;;4953980;29;20043;-50
2021/09/13 11:52:13;;;;;;;4.75;3.20;;;34.50;55.10;;;;;;4951641;29;20066;-52
2021/09/13 11:55:27;;;;;;;7.10;3.40;;;34.90;55.40;;;;;;4954003;29;20032;-49
2021/09/13 11:57:54;;;;;;;9.40;4.03;;;34.90;54.60;;;;;;4878805;29;20056;-52
2021/09/13 12:00:27;;;;;;;8.40;3.70;;;33.90;48.00;;;;;;4913738;29;20530;-51
2021/09/13 12:03:02;;;;;;;8.30;3.75;;;33.80;65.10;;;;;;4923728;29;20119;-52
2021/09/13 12:05:30;;;;;;;4.90;3.33;;;33.70;48.20;;;;;;4925597;29;20063;-55
2021/09/13 12:07:58;;;;;;;9.63;4.57;;;33.90;49.10;;;;;;4926328;29;20048;-55
2021/09/13 12:10:28;;;;;;;8.35;3.65;;;34.20;48.00;;;;;;4901890;29;20043;-52
2021/09/13 12:13:06;;;;;;;7.28;3.47;;;34.70;49.00;;;;;;4882694;29;20084;-52
2021/09/13 12:15:33;;;;;;;7.30;3.35;;;35.00;48.20;;;;;;4925997;29;20052;-51
2021/09/13 12:18:04;;;;;;;6.45;3.10;;;35.00;67.40;;;;;;4922274;29;20036;-50
2021/09/13 12:20:33;;;;;;;4.05;2.95;;;35.20;64.50;;;;;;4943005;28;20066;-49
2021/09/13 12:23:11;;;;;;;4.22;3.13;;;34.80;65.40;;;;;;4819262;29;20642;-47
2021/09/13 12:25:48;;;;;;;8.48;3.58;;;34.70;55.60;;;;;;4908299;29;20040;-52
2021/09/13 12:28:28;;;;;;;7.18;2.85;;;34.30;53.90;;;;;;4911664;29;20493;-52
2021/09/13 12:31:00;;;;;;;5.15;2.75;;;33.80;46.80;;;;;;4906313;29;20043;-51
2021/09/13 12:33:40;;;;;;;7.43;2.88;;;33.90;48.00;;;;;;4883347;29;20044;-52
2021/09/13 12:36:15;;;;;;;9.93;2.95;;;34.30;47.80;;;;;;4969364;28;20051;-50
2021/09/13 12:38:42;;;;;;;9.80;3.67;;;34.60;47.30;;;;;;4972048;28;20039;-50
2021/09/13 12:41:08;;;;;;;4.72;3.22;;;34.10;48.30;;;;;;4972546;28;20046;-49
2021/09/13 12:43:39;;;;;;;5.32;2.97;;;33.70;48.80;;;;;;4939295;28;20038;-51
2021/09/13 12:46:08;;;;;;;7.18;3.15;;;33.80;48.70;;;;;;4972957;28;20039;-53
2021/09/13 12:48:37;;;;;;;5.60;3.17;;;34.00;48.90;;;;;;4953113;28;20043;-52
2021/09/13 12:51:03;;;;;;;8.63;3.33;;;34.20;48.60;;;;;;4972122;28;20066;-51
2021/09/13 12:53:30;;;;;;;7.35;3.13;;;34.50;48.90;;;;;;4990196;28;20103;-49
2021/09/13 12:55:59;;;;;;;7.43;3.00;;;34.20;48.20;;;;;;5031093;28;20041;-51
2021/09/13 12:58:33;;;;;;;6.65;3.50;;;34.30;48.60;;;;;;5031495;28;20045;-51
2021/09/13 13:01:02;;;;;;;10.10;3.58;;;34.20;48.00;;;;;;5029662;28;20034;-51
2021/09/13 13:03:29;;;;;;;8.48;3.25;;;34.00;47.50;;;;;;5001434;28;20056;-49
2021/09/13 13:05:56;;;;;;;8.35;3.08;;;34.20;49.10;;;;;;5014019;28;20028;-48
2021/09/13 13:08:26;;;;;;;6.60;3.92;;;34.20;48.40;;;;;;5044573;28;20395;-52
2021/09/13 13:10:55;;;;;;;6.00;3.00;;;34.60;47.80;;;;;;5027068;28;20053;-50